Time;durP1;ratioP1;P1;durP2;ratioP2;P2;SDS_P1;SDS_P2;PMS_P1;PMS_P2;Temp;Humidity;BMP_temperature;BMP_pressure;BME280_temperature;BME280_humidity;BME280_pressure;Samples;Min_cycle;Max_cycle;Signal;HPM_P1;HPM_P2
2022/01/16 00:04:09;;;;;;;;;;;3.00;74.40;;;;;;4976397;28;19910;-88
2022/01/16 00:06:42;;;;;;;;;;;3.00;73.00;;;;;;4976272;28;19916;-88
2022/01/16 00:09:08;;;;;;;;;;;3.00;74.50;;;;;;4958960;28;20038;-88
2022/01/16 00:11:35;;;;;;;;;;;3.00;73.50;;;;;;4895384;28;1843675;-88
2022/01/16 00:14:02;;;;;;;;;;;3.00;73.20;;;;;;4977120;28;20352;-88
2022/01/16 00:16:28;;;;;;;;;;;3.00;73.20;;;;;;4959877;28;20029;-88
2022/01/16 00:18:54;;;;;;;;;;;3.00;74.20;;;;;;4976866;28;19965;-88
2022/01/16 00:21:21;;;;;;;;;;;3.00;72.80;;;;;;4959701;28;19910;-88
2022/01/16 00:23:46;;;;;;;;;;;3.00;73.50;;;;;;4959451;28;20374;-88
2022/01/16 00:26:12;;;;;;;;;;;3.00;73.00;;;;;;4959572;28;19918;-89
2022/01/16 00:28:38;;;;;;;;;;;3.00;73.20;;;;;;4959558;28;20001;-88
2022/01/16 00:31:03;;;;;;;;;;;3.00;74.60;;;;;;4976778;28;20353;-88
2022/01/16 00:33:29;;;;;;;;;;;3.00;73.90;;;;;;4959723;28;19986;-88
2022/01/16 00:35:54;;;;;;;;;;;3.10;73.60;;;;;;4961838;28;19910;-88
2022/01/16 00:38:20;;;;;;;;;;;3.10;73.30;;;;;;4961347;28;19933;-88
2022/01/16 00:40:45;;;;;;;;;;;3.00;74.30;;;;;;4960859;28;19917;-88
2022/01/16 00:43:11;;;;;;;;;;;3.10;74.40;;;;;;4976965;28;20285;-88
2022/01/16 00:45:36;;;;;;;;;;;3.10;73.60;;;;;;4976454;28;20357;-88
2022/01/16 00:48:03;;;;;;;;;;;3.10;73.70;;;;;;4976229;28;19914;-88
2022/01/16 00:50:29;;;;;;;;;;;3.10;73.70;;;;;;4959241;28;19917;-88
2022/01/16 00:52:55;;;;;;;;;;;3.10;74.10;;;;;;4975951;28;20309;-88
2022/01/16 00:55:20;;;;;;;;;;;3.10;74.30;;;;;;4959168;28;19937;-89
2022/01/16 00:57:46;;;;;;;;;;;3.10;73.20;;;;;;4958879;28;19917;-88
2022/01/16 01:00:11;;;;;;;;;;;3.10;74.20;;;;;;4959237;28;19965;-88
2022/01/16 01:02:37;;;;;;;;;;;3.10;73.60;;;;;;4959445;28;19910;-88
2022/01/16 01:05:03;;;;;;;;;;;3.10;74.30;;;;;;4961167;28;20385;-89
2022/01/16 01:07:28;;;;;;;;;;;3.10;74.40;;;;;;4961323;28;19937;-89
2022/01/16 01:09:54;;;;;;;;;;;3.10;74.60;;;;;;4962809;28;19910;-89
2022/01/16 01:12:34;;;;;;;;;;;3.10;73.80;;;;;;4958617;28;19949;-89
2022/01/16 01:15:10;;;;;;;;;;;3.10;73.80;;;;;;4959170;28;20016;-89
2022/01/16 01:17:43;;;;;;;;;;;3.10;74.30;;;;;;4959176;28;20349;-88
2022/01/16 01:20:10;;;;;;;;;;;3.00;73.60;;;;;;4961158;28;20293;-89
2022/01/16 01:22:35;;;;;;;;;;;3.10;74.00;;;;;;4961422;28;19916;-88
2022/01/16 01:25:01;;;;;;;;;;;3.10;73.80;;;;;;4961277;28;20338;-88
2022/01/16 01:27:31;;;;;;;;;;;3.10;74.40;;;;;;4960820;28;19922;-88
2022/01/16 01:30:04;;;;;;;;;;;3.10;74.10;;;;;;4959387;28;19918;-89
2022/01/16 01:32:31;;;;;;;;;;;3.10;74.80;;;;;;4958386;28;19910;-90
2022/01/16 01:34:57;;;;;;;;;;;3.10;74.50;;;;;;4958529;28;19922;-90
2022/01/16 01:37:22;;;;;;;;;;;3.10;75.10;;;;;;4958499;28;19986;-89
2022/01/16 01:39:48;;;;;;;;;;;3.10;75.60;;;;;;4958548;28;19910;-90
2022/01/16 01:42:14;;;;;;;;;;;3.10;75.10;;;;;;4958497;28;19964;-89
2022/01/16 01:52:56;;;;;;;;;;;3.00;75.60;;;;;;4975820;28;20376;-89
2022/01/16 01:55:23;;;;;;;;;;;3.00;74.90;;;;;;4958278;28;19910;-90
2022/01/16 01:57:49;;;;;;;;;;;3.10;75.10;;;;;;4975386;28;19910;-90
2022/01/16 02:00:17;;;;;;;;;;;3.00;75.30;;;;;;4976528;28;19910;-89
2022/01/16 02:03:13;;;;;;;;;;;3.10;74.80;;;;;;4962038;28;19952;-89
2022/01/16 02:05:40;;;;;;;;;;;3.00;74.20;;;;;;4961945;28;20386;-89
2022/01/16 02:08:06;;;;;;;;;;;3.10;75.10;;;;;;4961872;28;20258;-89
2022/01/16 02:10:31;;;;;;;;;;;3.10;74.50;;;;;;4962041;28;19917;-90
2022/01/16 02:13:02;;;;;;;;;;;3.10;75.30;;;;;;4979206;28;19984;-89
2022/01/16 02:36:59;;;;;;;;;;;3.00;70.80;;;;;;4978364;28;19914;-89
2022/01/16 02:39:25;;;;;;;;;;;3.00;70.60;;;;;;4961088;28;19910;-90
2022/01/16 02:41:52;;;;;;;;;;;3.00;68.70;;;;;;4960983;28;19910;-89
2022/01/16 02:44:34;;;;;;;;;;;3.00;68.20;;;;;;4961839;28;19933;-90
2022/01/16 02:47:00;;;;;;;;;;;3.00;69.00;;;;;;4978545;28;20477;-90
2022/01/16 02:49:29;;;;;;;;;;;3.10;69.70;;;;;;4961315;28;19954;-89
2022/01/16 02:51:57;;;;;;;;;;;3.10;69.50;;;;;;4960955;28;19910;-89
2022/01/16 02:54:23;;;;;;;;;;;3.00;70.50;;;;;;4978515;28;19918;-88
2022/01/16 02:56:49;;;;;;;;;;;3.00;70.90;;;;;;4961134;28;19920;-89
2022/01/16 02:59:15;;;;;;;;;;;3.10;72.10;;;;;;4960922;28;20009;-89
2022/01/16 03:01:40;;;;;;;;;;;3.10;72.30;;;;;;4978228;28;19910;-90
2022/01/16 03:04:07;;;;;;;;;;;3.10;72.60;;;;;;4978151;28;19918;-89
2022/01/16 03:06:33;;;;;;;;;;;3.10;72.50;;;;;;4960822;28;19961;-90
2022/01/16 03:08:58;;;;;;;;;;;3.10;72.40;;;;;;4978488;28;20297;-90
2022/01/16 03:11:57;;;;;;;;;;;3.10;72.10;;;;;;4960140;28;19910;-90
2022/01/16 03:14:17;;;;;;;;;;;3.10;72.20;;;;;;4975825;28;19922;-90
2022/01/16 03:16:46;;;;;;;;;;;3.10;72.20;;;;;;4960784;28;20365;-89
2022/01/16 03:22:07;;;;;;;;;;;3.20;73.30;;;;;;4925422;28;19967;-89
2022/01/16 03:24:34;;;;;;;;;;;3.20;72.20;;;;;;4977796;28;19921;-89
2022/01/16 03:27:01;;;;;;;;;;;3.10;73.10;;;;;;4960320;28;20380;-89
2022/01/16 03:29:27;;;;;;;;;;;3.20;72.80;;;;;;4960655;28;19973;-89
2022/01/16 03:31:53;;;;;;;;;;;3.20;72.90;;;;;;4960412;28;20004;-89
2022/01/16 03:34:19;;;;;;;;;;;3.20;72.50;;;;;;4960479;28;19921;-89
2022/01/16 03:36:45;;;;;;;;;;;3.20;72.20;;;;;;4960266;28;20396;-89
2022/01/16 03:39:10;;;;;;;;;;;3.10;73.20;;;;;;4959999;28;19910;-89
2022/01/16 03:41:37;;;;;;;;;;;3.10;71.70;;;;;;4960512;28;19953;-89
2022/01/16 03:44:03;;;;;;;;;;;3.10;71.90;;;;;;4960265;28;19917;-89
2022/01/16 03:46:34;;;;;;;;;;;3.10;71.80;;;;;;4960803;28;20273;-89
2022/01/16 03:49:03;;;;;;;;;;;3.10;72.20;;;;;;4959922;28;19945;-89
2022/01/16 03:51:29;;;;;;;;;;;3.10;72.30;;;;;;4959870;28;20002;-89
2022/01/16 03:53:54;;;;;;;;;;;3.10;71.60;;;;;;4960121;28;19914;-89
2022/01/16 03:56:20;;;;;;;;;;;3.10;71.80;;;;;;4959561;28;20361;-89
2022/01/16 03:58:46;;;;;;;;;;;3.10;72.20;;;;;;4960000;28;19914;-89
2022/01/16 04:01:11;;;;;;;;;;;3.10;71.60;;;;;;4959988;28;20358;-89
2022/01/16 04:03:37;;;;;;;;;;;3.10;71.60;;;;;;4959882;28;20369;-89
2022/01/16 04:06:02;;;;;;;;;;;3.10;70.80;;;;;;4960058;28;19917;-90
2022/01/16 04:08:28;;;;;;;;;;;3.10;70.80;;;;;;4959965;28;19918;-89
2022/01/16 04:10:53;;;;;;;;;;;3.10;71.30;;;;;;4959468;28;20013;-89
2022/01/16 04:13:20;;;;;;;;;;;3.00;71.10;;;;;;4959375;28;20028;-89
2022/01/16 04:15:46;;;;;;;;;;;3.10;71.20;;;;;;4959706;28;20276;-90
2022/01/16 04:18:12;;;;;;;;;;;3.10;71.70;;;;;;4976441;28;19914;-89
2022/01/16 04:20:38;;;;;;;;;;;3.10;71.20;;;;;;4959522;28;20246;-89
2022/01/16 04:23:04;;;;;;;;;;;3.00;71.10;;;;;;4959198;28;19933;-89
2022/01/16 04:25:30;;;;;;;;;;;3.10;71.40;;;;;;4958961;28;19918;-89
2022/01/16 04:27:55;;;;;;;;;;;3.10;71.40;;;;;;4959580;28;19910;-89
2022/01/16 04:30:21;;;;;;;;;;;3.10;71.50;;;;;;4959573;28;19914;-89
2022/01/16 04:32:47;;;;;;;;;;;3.10;70.90;;;;;;4959389;28;19921;-90
2022/01/16 04:35:12;;;;;;;;;;;3.10;71.40;;;;;;4959189;28;20393;-89
2022/01/16 04:37:38;;;;;;;;;;;3.10;71.30;;;;;;4959490;28;19917;-90
2022/01/16 04:40:04;;;;;;;;;;;3.00;71.90;;;;;;4958644;28;20365;-90
2022/01/16 04:45:15;;;;;;;;;;;3.10;71.80;;;;;;4976548;28;20372;-89
2022/01/16 04:47:41;;;;;;;;;;;3.00;71.00;;;;;;4958653;28;19910;-90
2022/01/16 04:50:07;;;;;;;;;;;3.00;70.80;;;;;;4976220;28;19921;-91
2022/01/16 04:52:32;;;;;;;;;;;3.10;71.70;;;;;;4958723;28;19911;-89
2022/01/16 04:54:58;;;;;;;;;;;3.10;71.30;;;;;;4958575;28;20369;-89
2022/01/16 04:57:23;;;;;;;;;;;3.00;71.00;;;;;;4958964;28;20354;-89
2022/01/16 04:59:49;;;;;;;;;;;3.10;71.20;;;;;;4958737;28;20353;-89
2022/01/16 05:02:14;;;;;;;;;;;3.10;70.70;;;;;;4958763;28;20322;-90
2022/01/16 05:04:40;;;;;;;;;;;3.10;71.30;;;;;;4958525;28;19957;-90
2022/01/16 05:07:06;;;;;;;;;;;3.10;71.70;;;;;;4975716;28;19910;-90
2022/01/16 05:09:31;;;;;;;;;;;3.10;71.20;;;;;;4975930;28;19917;-90
2022/01/16 05:11:59;;;;;;;;;;;3.10;70.80;;;;;;4958609;28;19929;-89
2022/01/16 05:17:09;;;;;;;;;;;3.00;70.50;;;;;;4976274;28;19925;-89
2022/01/16 05:19:34;;;;;;;;;;;3.00;70.90;;;;;;4958229;28;19910;-89
2022/01/16 05:22:00;;;;;;;;;;;3.00;71.50;;;;;;4958581;28;19917;-90
2022/01/16 05:24:31;;;;;;;;;;;2.90;72.20;;;;;;4975873;28;19914;-89
2022/01/16 05:26:57;;;;;;;;;;;3.00;72.00;;;;;;4975916;28;20362;-89
2022/01/16 05:29:22;;;;;;;;;;;3.00;72.40;;;;;;4975603;28;19910;-90
2022/01/16 05:31:48;;;;;;;;;;;2.90;72.10;;;;;;4958542;28;19961;-89
2022/01/16 05:34:14;;;;;;;;;;;2.90;72.20;;;;;;4958101;28;20289;-89
2022/01/16 05:36:40;;;;;;;;;;;2.90;72.80;;;;;;4961695;28;19918;-89
2022/01/16 05:39:05;;;;;;;;;;;2.90;73.10;;;;;;4962315;28;19910;-90
2022/01/16 05:41:31;;;;;;;;;;;2.90;72.70;;;;;;4961983;28;19910;-89
2022/01/16 05:43:56;;;;;;;;;;;2.90;72.80;;;;;;4979755;28;19914;-90
2022/01/16 05:46:22;;;;;;;;;;;2.90;71.80;;;;;;4962578;28;20358;-90
2022/01/16 05:48:48;;;;;;;;;;;2.90;71.60;;;;;;4962387;28;20293;-89
2022/01/16 05:51:13;;;;;;;;;;;2.90;71.40;;;;;;4961910;28;19914;-89
2022/01/16 05:53:39;;;;;;;;;;;2.90;71.40;;;;;;4962145;28;19945;-88
2022/01/16 05:56:04;;;;;;;;;;;2.90;71.20;;;;;;4961549;28;20281;-90
2022/01/16 05:58:30;;;;;;;;;;;2.90;71.30;;;;;;4961579;28;20008;-89
2022/01/16 06:00:56;;;;;;;;;;;3.00;71.60;;;;;;4961968;28;19910;-90
2022/01/16 06:03:21;;;;;;;;;;;2.90;72.60;;;;;;4961864;28;19910;-90
2022/01/16 06:05:47;;;;;;;;;;;2.90;71.30;;;;;;4961674;28;19914;-90
2022/01/16 06:08:14;;;;;;;;;;;2.90;71.30;;;;;;4962074;28;20372;-89
2022/01/16 06:10:39;;;;;;;;;;;2.90;72.10;;;;;;4978834;28;19910;-90
2022/01/16 06:13:05;;;;;;;;;;;2.90;72.20;;;;;;4961039;28;19928;-90
2022/01/16 06:15:31;;;;;;;;;;;2.90;72.40;;;;;;4961303;28;19914;-90
2022/01/16 06:17:57;;;;;;;;;;;2.90;72.60;;;;;;4961520;28;19921;-89
2022/01/16 06:20:22;;;;;;;;;;;2.90;72.70;;;;;;4961897;28;19910;-89
2022/01/16 06:22:48;;;;;;;;;;;2.90;72.80;;;;;;4961679;28;19933;-90
2022/01/16 06:25:14;;;;;;;;;;;2.90;73.00;;;;;;4961365;28;19952;-89
2022/01/16 06:27:40;;;;;;;;;;;2.90;73.10;;;;;;4961308;28;19995;-89
2022/01/16 06:30:07;;;;;;;;;;;2.90;73.30;;;;;;4960895;28;19910;-89
2022/01/16 06:32:33;;;;;;;;;;;2.90;73.00;;;;;;4961103;28;19962;-90
2022/01/16 06:34:58;;;;;;;;;;;2.90;73.20;;;;;;4977932;28;19943;-89
2022/01/16 06:37:24;;;;;;;;;;;2.90;72.90;;;;;;4961439;28;19968;-89
2022/01/16 06:39:49;;;;;;;;;;;2.90;73.00;;;;;;4961538;28;19910;-89
2022/01/16 06:42:15;;;;;;;;;;;2.90;73.50;;;;;;4961674;28;19910;-89
2022/01/16 06:44:41;;;;;;;;;;;2.90;73.30;;;;;;4962246;28;19914;-89
2022/01/16 06:47:07;;;;;;;;;;;2.90;73.00;;;;;;4962413;28;19921;-90
2022/01/16 06:49:32;;;;;;;;;;;2.90;72.60;;;;;;4962769;28;20000;-90
2022/01/16 06:51:58;;;;;;;;;;;2.90;72.60;;;;;;4962063;28;19911;-89
2022/01/16 06:54:23;;;;;;;;;;;2.80;72.20;;;;;;4960875;28;19914;-89
2022/01/16 06:56:49;;;;;;;;;;;2.90;71.90;;;;;;4977787;28;19954;-90
2022/01/16 06:59:14;;;;;;;;;;;2.90;73.10;;;;;;4960686;28;19910;-90
2022/01/16 07:01:40;;;;;;;;;;;2.90;72.30;;;;;;4960575;28;19911;-89
2022/01/16 07:04:05;;;;;;;;;;;2.90;72.60;;;;;;4960815;28;19957;-90
2022/01/16 07:06:31;;;;;;;;;;;2.90;72.40;;;;;;4960723;28;19933;-90
2022/01/16 07:08:56;;;;;;;;;;;2.90;72.20;;;;;;4960951;28;20281;-92
2022/01/16 07:11:22;;;;;;;;;;;2.90;72.20;;;;;;4960926;28;20308;-91
2022/01/16 07:13:47;;;;;;;;;;;3.00;71.80;;;;;;4960319;28;20374;-90
2022/01/16 07:16:13;;;;;;;;;;;3.00;72.00;;;;;;4960061;28;20009;-89
2022/01/16 07:18:38;;;;;;;;;;;3.00;71.70;;;;;;4960170;28;19914;-90
2022/01/16 07:21:12;;;;;;;;;;;3.10;72.10;;;;;;4960648;28;19910;-91
2022/01/16 07:23:45;;;;;;;;;;;3.00;71.80;;;;;;4960146;28;19910;-90
2022/01/16 07:26:11;;;;;;;;;;;3.10;71.50;;;;;;4960398;28;19992;-90
2022/01/16 07:28:37;;;;;;;;;;;3.10;71.90;;;;;;4960085;28;19936;-89
2022/01/16 07:31:02;;;;;;;;;;;3.10;71.30;;;;;;4961113;28;20417;-90
2022/01/16 07:33:28;;;;;;;;;;;3.10;71.10;;;;;;4961444;28;20277;-91
2022/01/16 07:35:54;;;;;;;;;;;3.10;72.20;;;;;;4971208;28;19921;-89
2022/01/16 07:38:20;;;;;;;;;;;3.20;72.00;;;;;;4967869;28;19910;-90
2022/01/16 07:40:46;;;;;;;;;;;3.20;71.70;;;;;;4977551;28;19933;-90
2022/01/16 07:43:13;;;;;;;;;;;3.20;72.20;;;;;;4960481;28;20044;-90
2022/01/16 07:45:39;;;;;;;;;;;3.20;71.60;;;;;;4960206;28;19910;-90
2022/01/16 07:48:08;;;;;;;;;;;3.20;71.50;;;;;;4960265;28;19949;-91
2022/01/16 07:50:35;;;;;;;;;;;3.30;72.30;;;;;;4959362;28;19997;-91
2022/01/16 07:53:00;;;;;;;;;;;3.20;72.60;;;;;;4959654;28;20041;-90
2022/01/16 07:55:26;;;;;;;;;;;3.30;72.40;;;;;;4959162;28;20368;-91
2022/01/16 07:57:57;;;;;;;;;;;3.30;72.90;;;;;;4958561;28;19910;-90
2022/01/16 08:00:23;;;;;;;;;;;3.30;72.00;;;;;;4976471;28;19910;-90
2022/01/16 08:02:49;;;;;;;;;;;3.30;72.60;;;;;;4959421;28;19988;-90
2022/01/16 08:05:16;;;;;;;;;;;3.30;72.50;;;;;;4959905;28;20318;-90
2022/01/16 08:07:42;;;;;;;;;;;3.30;73.20;;;;;;4959386;28;19910;-91
2022/01/16 08:10:08;;;;;;;;;;;3.40;73.60;;;;;;4976492;28;19914;-92
2022/01/16 08:12:33;;;;;;;;;;;3.30;74.00;;;;;;4959133;28;20020;-91
2022/01/16 08:14:59;;;;;;;;;;;3.30;74.40;;;;;;4959140;28;19921;-90
2022/01/16 08:17:25;;;;;;;;;;;3.40;74.80;;;;;;4959516;28;19957;-90
2022/01/16 08:19:50;;;;;;;;;;;3.30;75.00;;;;;;4958962;28;19953;-90
2022/01/16 08:22:16;;;;;;;;;;;3.30;75.30;;;;;;4960146;28;19914;-90
2022/01/16 08:24:41;;;;;;;;;;;3.30;75.80;;;;;;4959654;28;20365;-90
2022/01/16 08:27:07;;;;;;;;;;;3.30;76.20;;;;;;4959055;28;19926;-91
2022/01/16 08:29:32;;;;;;;;;;;3.30;76.30;;;;;;4958506;28;19910;-91
2022/01/16 08:31:58;;;;;;;;;;;3.30;76.40;;;;;;4958912;28;19961;-90
2022/01/16 08:34:23;;;;;;;;;;;3.30;76.60;;;;;;4958915;28;19925;-90
2022/01/16 08:36:49;;;;;;;;;;;3.30;76.50;;;;;;4959136;28;19914;-91
2022/01/16 08:39:15;;;;;;;;;;;3.30;76.80;;;;;;4958744;28;19946;-90
2022/01/16 08:41:40;;;;;;;;;;;3.30;76.40;;;;;;4959232;28;19910;-90
2022/01/16 08:44:06;;;;;;;;;;;3.20;76.60;;;;;;4959311;28;19911;-90
2022/01/16 08:46:32;;;;;;;;;;;3.20;76.70;;;;;;4976440;28;19914;-91
2022/01/16 08:48:58;;;;;;;;;;;3.20;76.80;;;;;;4958807;28;19920;-90
2022/01/16 08:51:23;;;;;;;;;;;3.20;76.70;;;;;;4958388;28;19910;-90
2022/01/16 08:53:49;;;;;;;;;;;3.30;77.20;;;;;;4975355;28;19921;-90
2022/01/16 08:56:15;;;;;;;;;;;3.30;76.40;;;;;;4975698;28;19997;-90
2022/01/16 08:58:41;;;;;;;;;;;3.30;76.80;;;;;;4958108;28;19933;-90
2022/01/16 09:01:07;;;;;;;;;;;3.30;76.30;;;;;;4975898;28;20001;-90
2022/01/16 09:03:32;;;;;;;;;;;3.40;76.20;;;;;;4959065;28;19910;-91
2022/01/16 09:05:58;;;;;;;;;;;3.40;75.90;;;;;;4958509;28;19910;-90
2022/01/16 09:08:23;;;;;;;;;;;3.30;75.70;;;;;;4958894;28;19957;-90
2022/01/16 09:10:49;;;;;;;;;;;3.40;75.70;;;;;;4958801;28;19953;-90
2022/01/16 09:13:17;;;;;;;;;;;3.40;75.00;;;;;;4958057;28;19922;-90
2022/01/16 09:15:44;;;;;;;;;;;3.40;75.20;;;;;;4958022;28;19921;-90
2022/01/16 09:18:09;;;;;;;;;;;3.40;74.70;;;;;;4958034;28;19957;-90
2022/01/16 09:20:35;;;;;;;;;;;3.50;74.80;;;;;;4958056;28;19914;-90
2022/01/16 09:23:01;;;;;;;;;;;3.50;74.80;;;;;;4958423;28;19910;-90
2022/01/16 09:25:27;;;;;;;;;;;3.50;73.50;;;;;;4958136;28;19914;-90
2022/01/16 09:27:52;;;;;;;;;;;3.50;73.80;;;;;;4959005;28;19914;-90
2022/01/16 09:30:18;;;;;;;;;;;3.50;73.20;;;;;;4958278;28;19917;-90
2022/01/16 09:32:44;;;;;;;;;;;3.50;73.40;;;;;;4975331;28;19910;-90
2022/01/16 09:35:10;;;;;;;;;;;3.60;73.20;;;;;;4958277;28;20281;-90
2022/01/16 09:37:36;;;;;;;;;;;3.60;73.90;;;;;;4975257;28;19914;-90
2022/01/16 09:40:03;;;;;;;;;;;3.70;74.10;;;;;;4958050;28;19938;-90
2022/01/16 09:42:28;;;;;;;;;;;3.70;71.80;;;;;;4958498;28;19910;-91
2022/01/16 09:44:54;;;;;;;;;;;3.80;72.80;;;;;;4958488;28;19917;-90
2022/01/16 09:47:20;;;;;;;;;;;3.80;70.70;;;;;;4958173;28;19981;-91
2022/01/16 09:49:46;;;;;;;;;;;3.80;72.70;;;;;;4957925;28;19981;-90
2022/01/16 09:52:11;;;;;;;;;;;3.90;72.40;;;;;;4957735;28;19914;-90
2022/01/16 09:54:37;;;;;;;;;;;4.00;70.10;;;;;;4958445;28;19918;-91
2022/01/16 09:57:04;;;;;;;;;;;4.00;71.60;;;;;;4959524;28;19937;-89
2022/01/16 09:59:29;;;;;;;;;;;4.00;69.20;;;;;;4959589;28;20001;-91
2022/01/16 10:01:55;;;;;;;;;;;4.00;69.70;;;;;;4959568;28;19945;-89
2022/01/16 10:04:31;;;;;;;;;;;4.00;69.10;;;;;;4959588;28;19961;-89
2022/01/16 10:06:58;;;;;;;;;;;4.00;67.90;;;;;;4959142;28;19957;-89
2022/01/16 10:09:24;;;;;;;;;;;4.00;69.00;;;;;;4974899;28;19914;-91
2022/01/16 10:11:57;;;;;;;;;;;3.90;67.40;;;;;;4957850;28;19922;-91
2022/01/16 10:14:36;;;;;;;;;;;3.90;67.90;;;;;;4958436;28;19937;-90
2022/01/16 10:17:09;;;;;;;;;;;3.90;66.80;;;;;;4957491;28;19914;-90
2022/01/16 10:19:35;;;;;;;;;;;3.90;68.20;;;;;;4957784;28;19914;-91
2022/01/16 10:22:04;;;;;;;;;;;3.90;68.60;;;;;;4959285;28;19910;-91
2022/01/16 10:24:32;;;;;;;;;;;4.00;67.60;;;;;;4961727;28;19969;-90
2022/01/16 10:27:17;;;;;;;;;;;4.00;66.60;;;;;;4961306;28;19922;-90
2022/01/16 10:29:43;;;;;;;;;;;4.00;67.00;;;;;;4978582;28;20005;-90
2022/01/16 10:32:23;;;;;;;;;;;4.00;65.90;;;;;;4978538;28;19968;-90
2022/01/16 10:34:53;;;;;;;;;;;4.00;66.60;;;;;;4978843;28;19922;-90
2022/01/16 10:37:18;;;;;;;;;;;4.00;65.50;;;;;;4978122;28;19915;-90
2022/01/16 10:39:58;;;;;;;;;;;4.00;65.50;;;;;;4961136;28;19917;-90
2022/01/16 10:42:23;;;;;;;;;;;4.00;65.80;;;;;;4961288;28;19910;-90
2022/01/16 10:45:00;;;;;;;;;;;4.00;66.10;;;;;;4961213;28;20009;-90
2022/01/16 10:47:33;;;;;;;;;;;4.00;66.60;;;;;;4961583;28;19910;-90
2022/01/16 10:49:59;;;;;;;;;;;4.00;66.10;;;;;;4961016;28;19910;-90
2022/01/16 10:52:24;;;;;;;;;;;3.90;64.70;;;;;;4961272;28;19937;-90
2022/01/16 10:54:50;;;;;;;;;;;3.90;64.50;;;;;;4978076;28;20301;-89
2022/01/16 10:57:18;;;;;;;;;;;3.90;65.20;;;;;;4960510;28;19920;-91
2022/01/16 10:59:44;;;;;;;;;;;3.90;65.70;;;;;;4978115;28;19937;-90
2022/01/16 11:02:10;;;;;;;;;;;3.80;63.40;;;;;;4961056;28;20361;-89
2022/01/16 11:04:35;;;;;;;;;;;3.70;64.00;;;;;;4961114;28;20346;-91
2022/01/16 11:07:05;;;;;;;;;;;3.70;65.40;;;;;;4960731;28;19910;-90
2022/01/16 11:09:31;;;;;;;;;;;3.70;65.90;;;;;;4961054;28;19945;-90
2022/01/16 11:12:00;;;;;;;;;;;3.70;65.90;;;;;;4960338;28;19930;-90
2022/01/16 11:14:26;;;;;;;;;;;3.70;66.20;;;;;;4960905;28;19918;-89
2022/01/16 11:16:52;;;;;;;;;;;3.70;65.40;;;;;;4960801;28;20361;-90
2022/01/16 11:19:21;;;;;;;;;;;3.70;65.50;;;;;;4960311;28;19911;-90
2022/01/16 11:21:51;;;;;;;;;;;3.60;65.80;;;;;;4960273;28;19914;-89
2022/01/16 11:26:43;;;;;;;;;;;3.60;65.30;;;;;;4978088;28;19962;-90
2022/01/16 11:29:08;;;;;;;;;;;3.50;65.40;;;;;;4977966;28;19910;-90
2022/01/16 11:31:34;;;;;;;;;;;3.50;65.20;;;;;;4961176;28;19917;-90
2022/01/16 11:34:00;;;;;;;;;;;3.50;64.70;;;;;;4976902;28;19918;-90
2022/01/16 11:36:29;;;;;;;;;;;3.40;64.90;;;;;;4961292;28;19950;-90
2022/01/16 11:38:54;;;;;;;;;;;3.40;64.90;;;;;;4960524;28;19910;-89
2022/01/16 11:41:36;;;;;;;;;;;;;;;;;;;;;
2022/01/16 11:44:16;;;;;;;;;;;3.30;64.40;;;;;;4974841;28;19924;-90
2022/01/16 11:46:50;;;;;;;;;;;3.30;64.30;;;;;;4942099;29;19914;-92
2022/01/16 11:49:30;;;;;;;;;;;3.30;63.30;;;;;;4942235;29;19997;-92
2022/01/16 11:52:15;;;;;;;;;;;;;;;;;;;;;
2022/01/16 11:55:12;;;;;;;;;;;;;;;;;;;;;
2022/01/16 11:58:03;;;;;;;;;;;3.20;64.20;;;;;;4973569;28;20001;-92
2022/01/16 12:04:10;;;;;;;;;;;;;;;;;;;;;
2022/01/16 12:10:19;;;;;;;;;;;3.40;63.80;;;;;;4970829;28;19941;-96
2022/01/16 12:13:05;;;;;;;;;;;3.40;63.40;;;;;;4962817;28;19985;-94
2022/01/16 12:15:46;;;;;;;;;;;3.30;64.10;;;;;;4974905;28;19923;-94
2022/01/16 12:19:13;;;;;;;;;;;3.30;64.10;;;;;;4949888;28;20002;-94
2022/01/16 12:22:03;;;;;;;;;;;;;;;;;;;;;
2022/01/16 12:24:55;;;;;;;;;;;3.40;65.00;;;;;;4978017;28;19918;-92
2022/01/16 12:27:47;;;;;;;;;;;3.40;63.60;;;;;;4962570;28;19968;-95
2022/01/16 12:30:37;;;;;;;;;;;3.30;63.40;;;;;;4949299;29;19918;-95
2022/01/16 12:33:37;;;;;;;;;;;3.20;62.70;;;;;;4974874;28;19937;-96
2022/01/16 12:42:18;;;;;;;;;;;3.10;63.20;;;;;;4889324;29;19972;-96
2022/01/16 12:54:38;;;;;;;;;;;;;;;;;;;;;
2022/01/16 13:00:22;;;;;;;;;;;2.90;64.30;;;;;;4803720;29;19957;-94
2022/01/16 13:03:09;;;;;;;;;;;;;;;;;;;;;
2022/01/16 13:54:44;;;;;;;;;;;;;;;;;;;;;
2022/01/16 14:00:58;;;;;;;;;;;;;;;;;;;;;
2022/01/16 14:28:32;;;;;;;;;;;;;;;;;;;;;
2022/01/16 14:31:31;;;;;;;;;;;2.80;66.40;;;;;;4885197;29;20006;-96
2022/01/16 14:56:00;;;;;;;;;;;2.60;68.30;;;;;;4831355;29;19966;-94
2022/01/16 15:17:25;;;;;;;;;;;;;;;;;;;;;
2022/01/16 15:53:15;;;;;;;;;;;2.00;67.80;;;;;;4987359;28;20071;-94
2022/01/16 15:55:41;;;;;;;;;;;2.00;68.00;;;;;;4969752;28;19926;-95
2022/01/16 15:58:09;;;;;;;;;;;2.00;67.20;;;;;;4977793;28;19925;-92
2022/01/16 16:01:20;;;;;;;;;;;2.00;67.40;;;;;;4978754;28;19974;-94
2022/01/16 16:04:11;;;;;;;;;;;2.00;67.10;;;;;;4942548;29;19915;-93
2022/01/16 16:06:39;;;;;;;;;;;2.00;67.50;;;;;;4948863;28;19918;-95
2022/01/16 16:09:05;;;;;;;;;;;2.00;67.70;;;;;;4966510;28;19914;-94
2022/01/16 16:11:32;;;;;;;;;;;2.00;67.70;;;;;;4978225;28;19921;-92
2022/01/16 16:13:57;;;;;;;;;;;1.90;67.80;;;;;;4963080;28;19982;-91
2022/01/16 16:16:23;;;;;;;;;;;2.00;68.10;;;;;;4957782;29;19914;-92
2022/01/16 16:18:48;;;;;;;;;;;1.90;68.20;;;;;;4955964;28;19910;-92
2022/01/16 16:21:14;;;;;;;;;;;1.90;68.10;;;;;;4956436;29;19921;-92
2022/01/16 16:23:39;;;;;;;;;;;2.00;68.60;;;;;;4954939;29;19917;-93
2022/01/16 16:26:05;;;;;;;;;;;2.00;68.70;;;;;;4955368;28;19982;-92
2022/01/16 16:28:31;;;;;;;;;;;2.00;68.80;;;;;;4953597;29;19977;-93
2022/01/16 16:30:56;;;;;;;;;;;2.00;68.40;;;;;;4954163;29;20326;-92
2022/01/16 16:33:23;;;;;;;;;;;2.00;68.50;;;;;;4953169;29;20364;-93
2022/01/16 16:35:49;;;;;;;;;;;2.00;68.20;;;;;;4952998;29;19965;-92
2022/01/16 16:38:14;;;;;;;;;;;2.00;67.50;;;;;;4952559;29;19997;-91
2022/01/16 16:40:40;;;;;;;;;;;2.00;67.90;;;;;;4953737;28;20001;-93
2022/01/16 16:43:06;;;;;;;;;;;1.90;68.30;;;;;;4953925;29;19930;-92
2022/01/16 16:45:31;;;;;;;;;;;1.90;68.20;;;;;;4955031;29;19917;-93
2022/01/16 16:47:57;;;;;;;;;;;1.90;68.40;;;;;;4955705;29;20370;-91
2022/01/16 16:50:27;;;;;;;;;;;1.90;68.20;;;;;;4957717;29;19961;-91
2022/01/16 16:52:54;;;;;;;;;;;1.90;68.80;;;;;;4956492;29;19914;-92
2022/01/16 16:55:20;;;;;;;;;;;1.90;68.80;;;;;;4956598;29;19946;-90
2022/01/16 16:57:46;;;;;;;;;;;1.90;68.80;;;;;;4957647;29;19915;-91
2022/01/16 17:00:11;;;;;;;;;;;1.90;68.60;;;;;;4958172;29;19929;-90
2022/01/16 17:02:37;;;;;;;;;;;1.90;68.90;;;;;;4957412;29;19917;-90
2022/01/16 17:05:03;;;;;;;;;;;1.90;69.00;;;;;;4958857;29;20247;-90
2022/01/16 17:07:29;;;;;;;;;;;1.90;69.20;;;;;;4958618;29;20438;-91
2022/01/16 17:09:57;;;;;;;;;;;1.90;69.00;;;;;;4958276;29;19918;-93
2022/01/16 17:12:24;;;;;;;;;;;1.90;68.60;;;;;;4959082;29;19914;-90
2022/01/16 17:14:49;;;;;;;;;;;2.00;69.00;;;;;;4956652;29;19954;-90
2022/01/16 17:17:16;;;;;;;;;;;2.00;69.10;;;;;;4958533;29;19923;-91
2022/01/16 17:19:47;;;;;;;;;;;1.90;68.90;;;;;;4958520;29;19917;-92
2022/01/16 17:22:21;;;;;;;;;;;1.90;68.90;;;;;;4957974;29;19922;-92
2022/01/16 17:24:47;;;;;;;;;;;1.90;69.20;;;;;;4958937;29;19949;-93
2022/01/16 17:27:14;;;;;;;;;;;1.90;69.50;;;;;;4958878;29;19911;-92
2022/01/16 17:29:40;;;;;;;;;;;1.90;69.30;;;;;;4958538;29;19916;-91
2022/01/16 17:32:06;;;;;;;;;;;1.90;69.50;;;;;;4958176;28;19911;-91
2022/01/16 17:34:32;;;;;;;;;;;1.90;69.70;;;;;;4957719;29;19926;-92
2022/01/16 17:36:58;;;;;;;;;;;1.90;69.60;;;;;;4958041;29;19915;-92
2022/01/16 17:39:23;;;;;;;;;;;1.90;69.60;;;;;;4957925;28;19933;-95
2022/01/16 17:41:49;;;;;;;;;;;1.90;70.00;;;;;;4956234;29;20003;-91
2022/01/16 17:44:16;;;;;;;;;;;2.00;70.00;;;;;;4958797;29;19917;-91
2022/01/16 17:46:42;;;;;;;;;;;2.00;69.50;;;;;;4957535;29;19911;-91
2022/01/16 17:49:07;;;;;;;;;;;2.00;69.30;;;;;;4957339;29;19916;-91
2022/01/16 17:51:33;;;;;;;;;;;2.00;69.60;;;;;;4957063;29;19910;-91
2022/01/16 17:53:59;;;;;;;;;;;2.00;69.70;;;;;;4956851;29;19944;-92
2022/01/16 17:56:25;;;;;;;;;;;2.00;69.50;;;;;;4964496;29;19918;-90
2022/01/16 17:58:51;;;;;;;;;;;2.00;69.80;;;;;;4967510;29;19961;-90
2022/01/16 18:01:17;;;;;;;;;;;2.00;70.20;;;;;;4967627;29;19935;-90
2022/01/16 18:03:43;;;;;;;;;;;2.10;70.50;;;;;;4966824;29;19956;-91
2022/01/16 18:06:09;;;;;;;;;;;2.10;70.60;;;;;;4963379;29;20009;-91
2022/01/16 18:08:34;;;;;;;;;;;2.10;70.30;;;;;;4959129;29;20377;-91
2022/01/16 18:11:00;;;;;;;;;;;2.10;70.60;;;;;;4959322;29;20270;-91
2022/01/16 18:13:25;;;;;;;;;;;2.10;70.30;;;;;;4958239;29;19911;-91
2022/01/16 18:15:51;;;;;;;;;;;2.10;70.60;;;;;;4958710;29;20335;-91
2022/01/16 18:18:17;;;;;;;;;;;2.10;70.60;;;;;;4965434;29;19921;-91
2022/01/16 18:20:43;;;;;;;;;;;2.00;70.40;;;;;;4974893;29;20366;-91
2022/01/16 18:23:08;;;;;;;;;;;2.00;70.40;;;;;;4972366;29;20377;-91
2022/01/16 18:25:34;;;;;;;;;;;2.00;70.30;;;;;;4966448;29;19910;-91
2022/01/16 18:28:00;;;;;;;;;;;2.00;70.70;;;;;;4959863;29;19918;-91